createdAt,value
2023-04-01T00:02:40.145Z,97231.96
2023-04-01T00:05:43.548Z,97237.09
2023-04-01T00:08:47.648Z,97234.10
2023-04-01T00:11:50.632Z,97237.42
2023-04-01T00:14:53.367Z,97240.23
2023-04-01T00:17:56.209Z,97240.23
2023-04-01T00:20:59.042Z,97238.54
2023-04-01T00:24:01.822Z,97241.53
2023-04-01T00:27:04.781Z,97235.20
2023-04-01T00:30:08.624Z,97237.85
2023-04-01T00:33:12.116Z,97241.61
2023-04-01T00:36:17.913Z,97242.70
2023-04-01T00:39:22.333Z,97237.35
2023-04-01T00:42:25.121Z,97238.17
2023-04-01T00:45:38.606Z,97232.55
2023-04-01T00:49:03.618Z,97233.48
2023-04-01T00:52:09.195Z,97239.61
2023-04-01T00:55:16.076Z,97234.95
2023-04-01T00:58:23.449Z,97236.09
2023-04-01T01:01:27.029Z,97234.35
2023-04-01T01:04:33.167Z,97228.14
2023-04-01T01:08:05.377Z,97222.76
2023-04-01T01:11:12.723Z,97216.27
2023-04-01T01:14:22.758Z,97207.65
2023-04-01T01:17:49.028Z,97204.23
2023-04-01T01:21:11.655Z,97201.41
2023-04-01T01:24:23.447Z,97202.05
2023-04-01T01:27:27.480Z,97197.53
2023-04-01T01:30:59.680Z,97201.20
2023-04-01T01:34:32.587Z,97197.09
2023-04-01T01:37:36.584Z,97201.39
2023-04-01T01:40:42.246Z,97204.79
2023-04-01T01:43:48.754Z,97205.27
2023-04-01T01:46:52.724Z,97209.55
2023-04-01T01:49:56.849Z,97205.23
2023-04-01T01:53:08.358Z,97206.02
2023-04-01T01:56:16.715Z,97211.30
2023-04-01T01:59:23.642Z,97211.87
2023-04-01T02:02:27.995Z,97207.24
2023-04-01T02:05:32.231Z,97206.53
2023-04-01T02:09:04.028Z,97206.98
2023-04-01T02:12:11.490Z,97207.41
2023-04-01T02:15:18.970Z,97204.88
2023-04-01T02:18:22.251Z,97203.80
2023-04-01T02:21:30.643Z,97206.39
2023-04-01T02:24:38.212Z,97211.77
2023-04-01T02:27:44.620Z,97213.44
2023-04-01T02:30:49.583Z,97208.98
2023-04-01T02:33:53.598Z,97209.05
2023-04-01T02:36:58.308Z,97210.02
2023-04-01T02:40:03.358Z,97209.54
2023-04-01T02:43:06.082Z,97207.70
2023-04-01T02:46:09.108Z,97213.69
2023-04-01T02:49:12.430Z,97211.70
2023-04-01T02:52:16.010Z,97216.52
2023-04-01T02:55:18.882Z,97215.48
2023-04-01T02:58:21.873Z,97215.20
2023-04-01T03:01:24.872Z,97219.66
2023-04-01T03:04:27.761Z,97222.22
2023-04-01T03:07:30.735Z,97226.06
2023-04-01T03:10:33.561Z,97226.48
2023-04-01T03:13:37.489Z,97229.15
2023-04-01T03:16:40.525Z,97228.72
2023-04-01T03:19:43.410Z,97227.73
2023-04-01T03:22:46.933Z,97225.69
2023-04-01T03:25:49.638Z,97230.50
2023-04-01T03:28:52.462Z,97229.94
2023-04-01T03:31:55.463Z,97227.77
2023-04-01T03:34:58.570Z,97225.89
2023-04-01T03:38:01.615Z,97228.00
2023-04-01T03:41:04.893Z,97226.25
2023-04-01T03:44:08.073Z,97232.95
2023-04-01T03:47:11.101Z,97232.45
2023-04-01T03:50:13.880Z,97238.83
2023-04-01T03:53:16.772Z,97245.24
2023-04-01T03:56:20.431Z,97242.67
2023-04-01T03:59:23.273Z,97240.05
2023-04-01T04:02:26.725Z,97243.27
2023-04-01T04:05:29.985Z,97248.33
2023-04-01T04:08:32.775Z,97249.73
2023-04-01T04:11:36.439Z,97257.08
2023-04-01T04:14:39.185Z,97260.98
2023-04-01T04:17:42.540Z,97267.05
2023-04-01T04:20:51.961Z,97266.73
2023-04-01T04:23:55.711Z,97263.23
2023-04-01T04:26:58.483Z,97268.73
2023-04-01T04:30:01.268Z,97272.24
2023-04-01T04:33:04.235Z,97270.01
2023-04-01T04:36:08.180Z,97270.30
2023-04-01T04:39:11.106Z,97262.59
2023-04-01T04:42:16.854Z,97256.36
2023-04-01T04:45:20.563Z,97265.36
2023-04-01T04:48:29.711Z,97268.21
2023-04-01T04:51:34.972Z,97268.12
2023-04-01T04:54:38.036Z,97270.75
2023-04-01T04:57:42.367Z,97269.98
2023-04-01T05:00:46.266Z,97277.23
2023-04-01T05:03:56.665Z,97277.04
2023-04-01T05:06:59.381Z,97275.59
2023-04-01T05:10:02.389Z,97272.59
2023-04-01T05:13:05.225Z,97267.13
2023-04-01T05:16:16.798Z,97263.42
2023-04-01T05:19:19.788Z,97259.92
2023-04-01T05:22:22.592Z,97263.06
2023-04-01T05:25:25.944Z,97268.42
2023-04-01T05:28:28.850Z,97268.98
2023-04-01T05:31:31.714Z,97269.29
2023-04-01T05:34:34.915Z,97271.25
2023-04-01T05:37:38.871Z,97268.88
2023-04-01T05:40:41.607Z,97268.47
2023-04-01T05:43:44.906Z,97272.02
2023-04-01T05:47:19.695Z,97270.73
2023-04-01T05:54:12.962Z,97267.90
2023-04-01T05:57:16.289Z,97267.30
2023-04-01T06:00:21.061Z,97267.70
2023-04-01T06:03:24.492Z,97268.09
2023-04-01T06:06:30.013Z,97268.13
2023-04-01T06:09:37.425Z,97264.33
2023-04-01T06:12:43.806Z,97263.80
2023-04-01T06:16:01.668Z,97266.30
2023-04-01T06:19:08.913Z,97270.30
2023-04-01T06:22:37.720Z,97273.00
2023-04-01T06:25:55.042Z,97274.45
2023-04-01T06:29:22.778Z,97275.94
2023-04-01T06:32:25.792Z,97279.10
2023-04-01T06:35:39.503Z,97276.21
2023-04-01T06:38:48.458Z,97277.63
2023-04-01T06:42:18.452Z,97278.01
2023-04-01T06:45:55.253Z,97279.14
2023-04-01T06:49:22.943Z,97278.20
2023-04-01T06:53:13.893Z,97276.81
2023-04-01T06:56:34.013Z,97281.59
2023-04-01T06:59:50.017Z,97280.08
2023-04-01T07:03:36.489Z,97281.68
2023-04-01T07:06:49.951Z,97288.23
2023-04-01T07:10:00.260Z,97289.44
2023-04-01T07:13:13.841Z,97289.97
2023-04-01T07:16:33.335Z,97290.48
2023-04-01T07:19:53.011Z,97292.55
2023-04-01T07:23:00.544Z,97292.19
2023-04-01T07:26:19.927Z,97294.06
2023-04-01T07:29:49.070Z,97295.80
2023-04-01T07:33:55.511Z,97293.36
2023-04-01T07:37:06.483Z,97295.80
2023-04-01T07:40:42.411Z,97295.38
2023-04-01T07:43:54.462Z,97297.46
2023-04-01T07:47:26.778Z,97297.23
2023-04-01T07:50:35.772Z,97295.21
2023-04-01T07:53:49.893Z,97299.87
2023-04-01T07:57:04.291Z,97300.29
2023-04-01T08:00:43.820Z,97298.59
2023-04-01T08:04:07.364Z,97303.38
2023-04-01T08:07:13.150Z,97304.98
2023-04-01T08:10:34.092Z,97305.64
2023-04-01T08:14:25.304Z,97304.34
2023-04-01T08:18:27.668Z,97310.96
2023-04-01T08:21:43.075Z,97310.79
2023-04-01T08:24:48.993Z,97316.78
2023-04-01T08:28:25.462Z,97316.45
2023-04-01T08:32:11.663Z,97318.68
2023-04-01T08:35:49.928Z,97311.60
2023-04-01T08:38:56.290Z,97309.64
2023-04-01T08:42:16.448Z,97307.30
2023-04-01T08:45:25.547Z,97307.16
2023-04-01T08:48:47.412Z,97301.44
2023-04-01T08:52:33.048Z,97305.77
2023-04-01T08:55:36.289Z,97308.85
2023-04-01T08:59:15.681Z,97309.05
2023-04-01T09:02:57.014Z,97312.89
2023-04-01T09:06:13.122Z,97309.94
2023-04-01T09:09:48.419Z,97312.36
2023-04-01T09:13:29.869Z,97319.10
2023-04-01T09:16:55.672Z,97319.09
2023-04-01T09:20:31.956Z,97318.48
2023-04-01T09:24:15.488Z,97319.25
2023-04-01T09:27:35.700Z,97322.70
2023-04-01T09:30:57.004Z,97319.14
2023-04-01T09:34:22.338Z,97324.20
2023-04-01T09:38:01.699Z,97317.52
2023-04-01T09:41:24.791Z,97324.02
2023-04-01T09:44:42.968Z,97324.31
2023-04-01T09:48:00.683Z,97326.77
2023-04-01T09:51:31.651Z,97322.48
2023-04-01T09:54:50.624Z,97323.55
2023-04-01T09:58:02.656Z,97327.25
2023-04-01T10:02:18.185Z,97326.64
2023-04-01T10:06:00.759Z,97325.77
2023-04-01T10:09:32.948Z,97320.30
2023-04-01T10:12:54.276Z,97324.59
2023-04-01T10:16:25.628Z,97323.98
2023-04-01T10:19:50.650Z,97322.56
2023-04-01T10:23:13.177Z,97325.13
2023-04-01T10:26:53.964Z,97334.98
2023-04-01T10:30:28.600Z,97336.55
2023-04-01T10:33:58.062Z,97337.91
2023-04-01T10:37:27.604Z,97343.13
2023-04-01T10:40:48.949Z,97347.50
2023-04-01T10:44:23.604Z,97346.46
2023-04-01T10:48:03.809Z,97345.66
2023-04-01T10:51:22.480Z,97348.02
2023-04-01T10:54:47.162Z,97347.15
2023-04-01T10:58:28.765Z,97345.48
2023-04-01T11:02:25.146Z,97343.66
2023-04-01T11:06:17.250Z,97347.87
2023-04-01T11:09:39.091Z,97349.18
2023-04-01T11:12:45.162Z,97353.78
2023-04-01T11:16:20.543Z,97359.06
2023-04-01T11:19:23.524Z,97360.90
2023-04-01T11:22:56.950Z,97368.27
2023-04-01T11:26:07.102Z,97365.06
2023-04-01T11:29:34.169Z,97368.94
2023-04-01T11:33:04.835Z,97370.92
2023-04-01T11:36:17.381Z,97371.89
2023-04-01T11:39:32.747Z,97375.68
2023-04-01T11:43:32.244Z,97374.97
2023-04-01T11:47:19.169Z,97376.84
2023-04-01T11:50:41.432Z,97375.33
2023-04-01T11:54:02.882Z,97374.75
2023-04-01T11:57:13.197Z,97377.00
2023-04-01T12:00:26.188Z,97375.84
2023-04-01T12:03:37.973Z,97375.59
2023-04-01T12:06:55.454Z,97377.75
2023-04-01T12:10:04.818Z,97377.38
2023-04-01T12:13:28.428Z,97381.56
2023-04-01T12:16:40.701Z,97377.96
2023-04-01T12:19:53.991Z,97379.51
2023-04-01T12:23:09.453Z,97378.13
2023-04-01T12:26:19.576Z,97383.23
2023-04-01T12:29:25.311Z,97382.96
2023-04-01T12:32:49.194Z,97385.56
2023-04-01T12:36:16.841Z,97386.91
2023-04-01T12:39:25.620Z,97389.84
2023-04-01T12:42:43.685Z,97396.44
2023-04-01T12:46:06.836Z,97397.40
2023-04-01T12:49:25.024Z,97401.83
2023-04-01T12:52:51.935Z,97401.23
2023-04-01T12:56:04.719Z,97404.90
2023-04-01T12:59:42.099Z,97409.46
2023-04-01T13:03:06.132Z,97406.76
2023-04-01T13:06:38.987Z,97413.77
2023-04-01T13:09:52.426Z,97416.74
2023-04-01T13:13:12.228Z,97418.59
2023-04-01T13:16:42.659Z,97421.37
2023-04-01T13:20:02.041Z,97427.31
2023-04-01T13:23:10.666Z,97425.65
2023-04-01T13:26:29.584Z,97429.20
2023-04-01T13:29:40.373Z,97435.10
2023-04-01T13:32:55.897Z,97437.86
2023-04-01T13:36:29.648Z,97442.53
2023-04-01T13:40:01.607Z,97455.10
2023-04-01T13:43:24.691Z,97454.10
2023-04-01T13:46:36.714Z,97458.35
2023-04-01T13:50:06.229Z,97462.04
2023-04-01T13:53:36.934Z,97466.34
2023-04-01T13:56:59.467Z,97474.02
2023-04-01T14:00:32.162Z,97475.06
2023-04-01T14:03:44.140Z,97480.21
2023-04-01T14:07:22.640Z,97483.20
2023-04-01T14:11:10.433Z,97487.30
2023-04-01T14:14:18.885Z,97488.71
2023-04-01T14:18:02.796Z,97491.52
2023-04-01T14:21:14.766Z,97496.90
2023-04-01T14:24:42.162Z,97497.27
2023-04-01T14:28:23.138Z,97507.11
2023-04-01T14:31:31.935Z,97510.86
2023-04-01T14:35:11.662Z,97509.27
2023-04-01T14:38:26.646Z,97517.17
2023-04-01T14:42:15.605Z,97519.09
2023-04-01T14:45:41.902Z,97525.73
2023-04-01T14:48:57.218Z,97532.37
2023-04-01T14:52:18.521Z,97539.50
2023-04-01T14:55:39.801Z,97539.35
2023-04-01T14:58:51.373Z,97546.92
2023-04-01T15:02:15.343Z,97548.45
2023-04-01T15:05:37.419Z,97555.95
2023-04-01T15:08:51.719Z,97560.52
2023-04-01T15:12:14.681Z,97563.85
2023-04-01T15:15:37.231Z,97576.99
2023-04-01T15:18:49.151Z,97578.66
2023-04-01T15:22:07.634Z,97588.63
2023-04-01T15:25:29.217Z,97592.82
2023-04-01T15:29:02.364Z,97600.30
2023-04-01T15:32:21.060Z,97606.08
2023-04-01T15:35:30.009Z,97607.90
2023-04-01T15:38:49.544Z,97612.66
2023-04-01T15:42:31.105Z,97617.45
2023-04-01T15:45:39.856Z,97620.80
2023-04-01T15:49:04.587Z,97623.90
2023-04-01T15:52:55.802Z,97631.88
2023-04-01T15:56:42.307Z,97637.05
2023-04-01T16:00:09.864Z,97644.28
2023-04-01T16:03:50.552Z,97647.91
2023-04-01T16:07:25.684Z,97654.70
2023-04-01T16:10:50.428Z,97660.29
2023-04-01T16:14:24.734Z,97666.67
2023-04-01T16:18:05.708Z,97671.31
2023-04-01T16:21:23.292Z,97676.13
2023-04-01T16:24:37.060Z,97682.64
2023-04-01T16:27:42.733Z,97687.94
2023-04-01T16:31:14.799Z,97698.53
2023-04-01T16:34:26.266Z,97705.23
2023-04-01T16:37:46.472Z,97712.88
2023-04-01T16:41:23.124Z,97718.17
2023-04-01T16:44:28.533Z,97722.13
2023-04-01T16:47:39.790Z,97724.13
2023-04-01T16:51:11.022Z,97732.41
2023-04-01T16:54:19.984Z,97740.35
2023-04-01T16:57:31.739Z,97745.22
2023-04-01T17:00:40.100Z,97747.10
2023-04-01T17:03:46.925Z,97752.70
2023-04-01T17:07:08.363Z,97755.35
2023-04-01T17:10:48.239Z,97762.11
2023-04-01T17:14:02.934Z,97767.77
2023-04-01T17:17:31.268Z,97765.48
2023-04-01T17:20:39.857Z,97768.54
2023-04-01T17:23:55.072Z,97772.25
2023-04-01T17:27:38.883Z,97780.27
2023-04-01T17:31:08.055Z,97788.63
2023-04-01T17:34:36.992Z,97792.45
2023-04-01T17:37:51.632Z,97797.20
2023-04-01T17:41:25.644Z,97804.42
2023-04-01T17:44:28.463Z,97812.38
2023-04-01T17:47:51.225Z,97818.03
2023-04-01T17:51:18.138Z,97825.39
2023-04-01T17:54:32.998Z,97831.73
2023-04-01T17:57:56.038Z,97834.95
2023-04-01T18:01:23.394Z,97841.17
2023-04-01T18:04:32.178Z,97844.89
2023-04-01T18:08:01.665Z,97850.27
2023-04-01T18:11:45.900Z,97854.52
2023-04-01T18:15:22.283Z,97862.70
2023-04-01T18:18:48.205Z,97864.98
2023-04-01T18:21:56.876Z,97870.16
2023-04-01T18:25:13.964Z,97875.88
2023-04-01T18:28:32.249Z,97882.33
2023-04-01T18:31:43.183Z,97885.83
2023-04-01T18:34:55.389Z,97896.23
2023-04-01T18:38:03.995Z,97895.73
2023-04-01T18:41:28.598Z,97902.83
2023-04-01T18:44:43.291Z,97907.33
2023-04-01T18:47:57.335Z,97907.09
2023-04-01T18:51:11.514Z,97910.59
2023-04-01T18:54:46.626Z,97907.14
2023-04-01T18:58:13.610Z,97913.26
2023-04-01T19:01:35.958Z,97914.48
2023-04-01T19:04:50.152Z,97918.80
2023-04-01T19:07:55.019Z,97923.88
2023-04-01T19:11:40.445Z,97933.56
2023-04-01T19:14:58.060Z,97938.52
2023-04-01T19:18:15.412Z,97946.25
2023-04-01T19:21:30.408Z,97948.55
2023-04-01T19:24:53.098Z,97953.98
2023-04-01T19:28:22.788Z,97960.02
2023-04-01T19:31:25.690Z,97965.27
2023-04-01T19:35:04.057Z,97964.98
2023-04-01T19:38:22.318Z,97971.70
2023-04-01T19:41:53.714Z,97979.69
2023-04-01T19:45:09.526Z,97982.46
2023-04-01T19:48:39.642Z,97990.66
2023-04-01T19:52:15.619Z,97988.27
2023-04-01T19:55:27.196Z,97989.58
2023-04-01T19:59:21.974Z,97996.99
2023-04-01T20:02:40.840Z,98007.26
2023-04-01T20:06:08.899Z,98013.11
2023-04-01T20:09:41.154Z,98016.86
2023-04-01T20:12:46.998Z,98015.27
2023-04-01T20:16:02.349Z,98017.53
2023-04-01T20:19:05.416Z,98016.40
2023-04-01T20:22:26.457Z,98022.36
2023-04-01T20:25:44.261Z,98027.22
2023-04-01T20:29:22.076Z,98033.44
2023-04-01T20:33:02.055Z,98031.85
2023-04-01T20:36:26.044Z,98034.64
2023-04-01T20:39:31.793Z,98038.11
2023-04-01T20:43:02.784Z,98041.37
2023-04-01T20:46:31.908Z,98046.17
2023-04-01T20:49:40.611Z,98047.81
2023-04-01T20:52:55.446Z,98051.54
2023-04-01T20:56:17.087Z,98050.61
2023-04-01T20:59:35.873Z,98053.44
2023-04-01T21:03:09.405Z,98056.21
2023-04-01T21:06:14.910Z,98062.42
2023-04-01T21:09:31.248Z,98068.88
2023-04-01T21:12:46.237Z,98068.99
2023-04-01T21:16:26.403Z,98071.13
2023-04-01T21:19:50.348Z,98070.56
2023-04-01T21:23:43.848Z,98071.11
2023-04-01T21:26:52.639Z,98074.98
2023-04-01T21:30:17.458Z,98076.39
2023-04-01T21:33:42.187Z,98082.41
2023-04-01T21:37:06.452Z,98084.20
2023-04-01T21:40:27.764Z,98088.92
2023-04-01T21:43:55.689Z,98087.33
2023-04-01T21:47:03.654Z,98092.89
2023-04-01T21:50:44.146Z,98096.17
2023-04-01T21:53:59.054Z,98100.16
2023-04-01T21:57:08.117Z,98099.59
2023-04-01T22:00:17.534Z,98107.11
2023-04-01T22:03:32.749Z,98109.92
2023-04-01T22:06:42.107Z,98115.25
2023-04-01T22:10:10.157Z,98109.15
2023-04-01T22:13:21.175Z,98110.70
2023-04-01T22:16:33.255Z,98116.31
2023-04-01T22:19:36.682Z,98119.77
2023-04-01T22:22:52.181Z,98125.72
2023-04-01T22:26:10.913Z,98129.48
2023-04-01T22:29:16.670Z,98133.05
2023-04-01T22:32:28.197Z,98136.64
2023-04-01T22:35:31.583Z,98141.09
2023-04-01T22:38:59.110Z,98146.44
2023-04-01T22:42:21.845Z,98151.20
2023-04-01T22:45:34.006Z,98150.00
2023-04-01T22:48:48.779Z,98148.91
2023-04-01T22:52:04.220Z,98157.41
2023-04-01T22:55:21.468Z,98159.58
2023-04-01T22:58:31.911Z,98157.14
2023-04-01T23:01:41.398Z,98160.81
2023-04-01T23:04:52.264Z,98166.87
2023-04-01T23:08:39.122Z,98167.57
2023-04-01T23:11:58.794Z,98174.85
2023-04-01T23:15:03.421Z,98177.47
2023-04-01T23:18:35.124Z,98177.80
2023-04-01T23:21:50.813Z,98180.36
2023-04-01T23:25:08.575Z,98189.54
2023-04-01T23:28:17.170Z,98190.10
2023-04-01T23:31:32.875Z,98197.31
2023-04-01T23:34:36.899Z,98200.58
2023-04-01T23:37:39.679Z,98203.90
2023-04-01T23:40:43.014Z,98209.38
2023-04-01T23:43:50.436Z,98207.95
2023-04-01T23:46:54.565Z,98216.51
2023-04-01T23:50:19.306Z,98217.74
2023-04-01T23:53:26.268Z,98219.75
2023-04-01T23:56:49.777Z,98226.51
